sensor_id;sensor_type;location;lat;lon;timestamp;P1;durP1;ratioP1;P2;durP2;ratioP2
4704;SDS011;2366;51.332;6.610;2024-03-02T00:01:50;2.23;;;1.70;;
4704;SDS011;2366;51.332;6.610;2024-03-02T00:04:15;1.87;;;1.40;;
4704;SDS011;2366;51.332;6.610;2024-03-02T00:06:42;2.95;;;2.15;;
4704;SDS011;2366;51.332;6.610;2024-03-02T00:09:08;2.13;;;1.77;;
4704;SDS011;2366;51.332;6.610;2024-03-02T00:11:37;1.40;;;1.30;;
4704;SDS011;2366;51.332;6.610;2024-03-02T00:14:03;1.85;;;1.50;;
4704;SDS011;2366;51.332;6.610;2024-03-02T00:16:30;1.97;;;1.60;;
4704;SDS011;2366;51.332;6.610;2024-03-02T00:18:56;3.50;;;1.77;;
4704;SDS011;2366;51.332;6.610;2024-03-02T00:21:27;3.05;;;1.67;;
4704;SDS011;2366;51.332;6.610;2024-03-02T00:23:54;2.40;;;1.58;;
4704;SDS011;2366;51.332;6.610;2024-03-02T00:26:20;1.87;;;1.60;;
4704;SDS011;2366;51.332;6.610;2024-03-02T00:28:45;2.30;;;1.47;;
4704;SDS011;2366;51.332;6.610;2024-03-02T00:31:11;4.13;;;1.90;;
4704;SDS011;2366;51.332;6.610;2024-03-02T00:36:13;2.60;;;2.03;;
4704;SDS011;2366;51.332;6.610;2024-03-02T00:38:52;7.72;;;2.35;;
4704;SDS011;2366;51.332;6.610;2024-03-02T00:41:21;2.45;;;1.60;;
4704;SDS011;2366;51.332;6.610;2024-03-02T00:46:27;1.58;;;1.23;;
4704;SDS011;2366;51.332;6.610;2024-03-02T00:48:56;2.58;;;2.13;;
4704;SDS011;2366;51.332;6.610;2024-03-02T00:51:23;2.17;;;1.48;;
4704;SDS011;2366;51.332;6.610;2024-03-02T00:53:50;1.75;;;1.20;;
4704;SDS011;2366;51.332;6.610;2024-03-02T00:56:17;2.53;;;1.60;;
4704;SDS011;2366;51.332;6.610;2024-03-02T00:58:43;3.20;;;1.60;;
4704;SDS011;2366;51.332;6.610;2024-03-02T01:01:08;5.07;;;1.50;;
4704;SDS011;2366;51.332;6.610;2024-03-02T01:03:34;1.93;;;1.43;;
4704;SDS011;2366;51.332;6.610;2024-03-02T01:06:00;1.90;;;1.50;;
4704;SDS011;2366;51.332;6.610;2024-03-02T01:08:25;7.30;;;1.90;;
4704;SDS011;2366;51.332;6.610;2024-03-02T01:10:51;2.30;;;1.60;;
4704;SDS011;2366;51.332;6.610;2024-03-02T01:13:17;2.50;;;1.50;;
4704;SDS011;2366;51.332;6.610;2024-03-02T01:15:46;2.88;;;1.65;;
4704;SDS011;2366;51.332;6.610;2024-03-02T01:18:12;3.47;;;2.20;;
4704;SDS011;2366;51.332;6.610;2024-03-02T01:20:37;1.73;;;1.50;;
4704;SDS011;2366;51.332;6.610;2024-03-02T01:23:02;2.00;;;1.83;;
4704;SDS011;2366;51.332;6.610;2024-03-02T01:25:28;1.37;;;1.27;;
4704;SDS011;2366;51.332;6.610;2024-03-02T01:27:53;4.03;;;1.87;;
4704;SDS011;2366;51.332;6.610;2024-03-02T01:30:19;2.27;;;2.13;;
4704;SDS011;2366;51.332;6.610;2024-03-02T01:32:44;2.33;;;1.50;;
4704;SDS011;2366;51.332;6.610;2024-03-02T01:35:09;2.80;;;1.77;;
4704;SDS011;2366;51.332;6.610;2024-03-02T01:37:35;1.70;;;1.60;;
4704;SDS011;2366;51.332;6.610;2024-03-02T01:40:00;1.67;;;1.57;;
4704;SDS011;2366;51.332;6.610;2024-03-02T01:42:26;2.60;;;1.23;;
4704;SDS011;2366;51.332;6.610;2024-03-02T01:44:51;1.83;;;1.50;;
4704;SDS011;2366;51.332;6.610;2024-03-02T01:47:16;3.50;;;1.67;;
4704;SDS011;2366;51.332;6.610;2024-03-02T01:49:42;1.63;;;1.53;;
4704;SDS011;2366;51.332;6.610;2024-03-02T01:52:07;4.20;;;1.50;;
4704;SDS011;2366;51.332;6.610;2024-03-02T01:54:33;3.27;;;1.60;;
4704;SDS011;2366;51.332;6.610;2024-03-02T01:56:58;1.97;;;1.60;;
4704;SDS011;2366;51.332;6.610;2024-03-02T01:59:24;4.60;;;1.23;;
4704;SDS011;2366;51.332;6.610;2024-03-02T02:01:50;3.67;;;1.80;;
4704;SDS011;2366;51.332;6.610;2024-03-02T02:04:15;2.47;;;1.23;;
4704;SDS011;2366;51.332;6.610;2024-03-02T02:06:41;2.90;;;1.10;;
4704;SDS011;2366;51.332;6.610;2024-03-02T02:09:09;3.30;;;1.83;;
4704;SDS011;2366;51.332;6.610;2024-03-02T02:11:35;2.78;;;1.38;;
4704;SDS011;2366;51.332;6.610;2024-03-02T02:14:01;3.10;;;1.43;;
4704;SDS011;2366;51.332;6.610;2024-03-02T02:16:26;1.50;;;1.40;;
4704;SDS011;2366;51.332;6.610;2024-03-02T02:18:52;1.70;;;1.50;;
4704;SDS011;2366;51.332;6.610;2024-03-02T02:21:17;2.40;;;1.47;;
4704;SDS011;2366;51.332;6.610;2024-03-02T02:23:42;2.20;;;1.60;;
4704;SDS011;2366;51.332;6.610;2024-03-02T02:26:11;2.13;;;1.92;;
4704;SDS011;2366;51.332;6.610;2024-03-02T02:28:37;3.60;;;1.60;;
4704;SDS011;2366;51.332;6.610;2024-03-02T02:31:02;3.90;;;1.53;;
4704;SDS011;2366;51.332;6.610;2024-03-02T02:33:28;3.77;;;2.03;;
4704;SDS011;2366;51.332;6.610;2024-03-02T02:35:54;3.07;;;1.57;;
4704;SDS011;2366;51.332;6.610;2024-03-02T02:38:19;1.87;;;1.73;;
4704;SDS011;2366;51.332;6.610;2024-03-02T02:40:45;1.70;;;1.60;;
4704;SDS011;2366;51.332;6.610;2024-03-02T02:43:10;1.77;;;1.60;;
4704;SDS011;2366;51.332;6.610;2024-03-02T02:45:36;2.30;;;1.60;;
4704;SDS011;2366;51.332;6.610;2024-03-02T02:48:01;1.70;;;1.60;;
4704;SDS011;2366;51.332;6.610;2024-03-02T02:50:27;2.97;;;1.70;;
4704;SDS011;2366;51.332;6.610;2024-03-02T02:52:53;3.30;;;1.63;;
4704;SDS011;2366;51.332;6.610;2024-03-02T02:55:19;4.90;;;1.90;;
4704;SDS011;2366;51.332;6.610;2024-03-02T02:57:44;2.67;;;2.00;;
4704;SDS011;2366;51.332;6.610;2024-03-02T03:00:11;1.67;;;1.58;;
4704;SDS011;2366;51.332;6.610;2024-03-02T03:02:41;2.13;;;1.90;;
4704;SDS011;2366;51.332;6.610;2024-03-02T03:05:08;2.28;;;1.83;;
4704;SDS011;2366;51.332;6.610;2024-03-02T03:07:35;4.45;;;2.45;;
4704;SDS011;2366;51.332;6.610;2024-03-02T03:10:01;2.63;;;1.70;;
4704;SDS011;2366;51.332;6.610;2024-03-02T03:12:28;3.55;;;2.30;;
4704;SDS011;2366;51.332;6.610;2024-03-02T03:14:53;3.23;;;1.93;;
4704;SDS011;2366;51.332;6.610;2024-03-02T03:17:19;4.27;;;1.97;;
4704;SDS011;2366;51.332;6.610;2024-03-02T03:19:46;1.65;;;1.55;;
4704;SDS011;2366;51.332;6.610;2024-03-02T03:22:11;1.63;;;1.53;;
4704;SDS011;2366;51.332;6.610;2024-03-02T03:24:36;2.57;;;2.37;;
4704;SDS011;2366;51.332;6.610;2024-03-02T03:27:02;3.10;;;1.80;;
4704;SDS011;2366;51.332;6.610;2024-03-02T03:29:28;7.97;;;2.00;;
4704;SDS011;2366;51.332;6.610;2024-03-02T03:31:53;4.17;;;2.20;;
4704;SDS011;2366;51.332;6.610;2024-03-02T03:34:18;2.93;;;2.10;;
4704;SDS011;2366;51.332;6.610;2024-03-02T03:36:44;3.80;;;2.00;;
4704;SDS011;2366;51.332;6.610;2024-03-02T03:39:09;2.43;;;1.80;;
4704;SDS011;2366;51.332;6.610;2024-03-02T03:41:35;5.20;;;1.83;;
4704;SDS011;2366;51.332;6.610;2024-03-02T03:44:00;8.60;;;2.03;;
4704;SDS011;2366;51.332;6.610;2024-03-02T03:46:25;1.60;;;1.50;;
4704;SDS011;2366;51.332;6.610;2024-03-02T03:48:51;2.77;;;1.90;;
4704;SDS011;2366;51.332;6.610;2024-03-02T03:51:16;4.60;;;1.50;;
4704;SDS011;2366;51.332;6.610;2024-03-02T03:53:41;1.70;;;1.60;;
4704;SDS011;2366;51.332;6.610;2024-03-02T03:56:07;2.03;;;1.40;;
4704;SDS011;2366;51.332;6.610;2024-03-02T03:58:32;1.90;;;1.63;;
4704;SDS011;2366;51.332;6.610;2024-03-02T04:00:58;2.03;;;1.60;;
4704;SDS011;2366;51.332;6.610;2024-03-02T04:03:23;2.87;;;1.00;;
4704;SDS011;2366;51.332;6.610;2024-03-02T04:05:48;2.30;;;1.30;;
4704;SDS011;2366;51.332;6.610;2024-03-02T04:08:14;0.93;;;0.80;;
4704;SDS011;2366;51.332;6.610;2024-03-02T04:10:39;2.40;;;1.10;;
4704;SDS011;2366;51.332;6.610;2024-03-02T04:13:05;2.10;;;1.13;;
4704;SDS011;2366;51.332;6.610;2024-03-02T04:15:31;4.70;;;1.50;;
4704;SDS011;2366;51.332;6.610;2024-03-02T04:17:56;2.40;;;1.20;;
4704;SDS011;2366;51.332;6.610;2024-03-02T04:20:22;1.27;;;1.17;;
4704;SDS011;2366;51.332;6.610;2024-03-02T04:22:47;2.43;;;1.50;;
4704;SDS011;2366;51.332;6.610;2024-03-02T04:25:12;2.10;;;1.37;;
4704;SDS011;2366;51.332;6.610;2024-03-02T04:27:38;2.90;;;2.20;;
4704;SDS011;2366;51.332;6.610;2024-03-02T04:30:04;3.40;;;1.80;;
4704;SDS011;2366;51.332;6.610;2024-03-02T04:32:30;2.78;;;1.90;;
4704;SDS011;2366;51.332;6.610;2024-03-02T04:34:56;3.30;;;1.63;;
4704;SDS011;2366;51.332;6.610;2024-03-02T04:37:22;2.60;;;2.03;;
4704;SDS011;2366;51.332;6.610;2024-03-02T04:39:47;6.20;;;2.60;;
4704;SDS011;2366;51.332;6.610;2024-03-02T04:42:13;2.40;;;1.60;;
4704;SDS011;2366;51.332;6.610;2024-03-02T04:44:38;4.63;;;2.23;;
4704;SDS011;2366;51.332;6.610;2024-03-02T04:47:04;4.33;;;1.70;;
4704;SDS011;2366;51.332;6.610;2024-03-02T04:49:29;2.47;;;1.50;;
4704;SDS011;2366;51.332;6.610;2024-03-02T04:51:55;2.23;;;1.73;;
4704;SDS011;2366;51.332;6.610;2024-03-02T04:54:22;2.55;;;1.60;;
4704;SDS011;2366;51.332;6.610;2024-03-02T04:56:47;1.50;;;1.40;;
4704;SDS011;2366;51.332;6.610;2024-03-02T04:59:16;3.55;;;1.60;;
4704;SDS011;2366;51.332;6.610;2024-03-02T05:01:43;2.10;;;1.20;;
4704;SDS011;2366;51.332;6.610;2024-03-02T05:04:09;1.23;;;1.13;;
4704;SDS011;2366;51.332;6.610;2024-03-02T05:06:36;2.95;;;1.83;;
4704;SDS011;2366;51.332;6.610;2024-03-02T05:09:08;2.67;;;1.80;;
4704;SDS011;2366;51.332;6.610;2024-03-02T05:11:34;2.85;;;1.73;;
4704;SDS011;2366;51.332;6.610;2024-03-02T05:14:02;4.00;;;1.30;;
4704;SDS011;2366;51.332;6.610;2024-03-02T05:16:28;2.13;;;1.63;;
4704;SDS011;2366;51.332;6.610;2024-03-02T05:18:53;3.03;;;1.80;;
4704;SDS011;2366;51.332;6.610;2024-03-02T05:21:19;3.87;;;2.03;;
4704;SDS011;2366;51.332;6.610;2024-03-02T05:23:45;2.13;;;1.80;;
4704;SDS011;2366;51.332;6.610;2024-03-02T05:26:10;7.13;;;2.83;;
4704;SDS011;2366;51.332;6.610;2024-03-02T05:28:38;2.28;;;1.50;;
4704;SDS011;2366;51.332;6.610;2024-03-02T05:31:04;2.00;;;1.80;;
4704;SDS011;2366;51.332;6.610;2024-03-02T05:33:30;2.15;;;1.95;;
4704;SDS011;2366;51.332;6.610;2024-03-02T05:35:57;3.92;;;2.20;;
4704;SDS011;2366;51.332;6.610;2024-03-02T05:38:23;5.33;;;2.67;;
4704;SDS011;2366;51.332;6.610;2024-03-02T05:40:49;2.40;;;2.20;;
4704;SDS011;2366;51.332;6.610;2024-03-02T05:43:14;3.70;;;2.10;;
4704;SDS011;2366;51.332;6.610;2024-03-02T05:45:39;6.30;;;2.43;;
4704;SDS011;2366;51.332;6.610;2024-03-02T05:48:06;3.83;;;2.20;;
4704;SDS011;2366;51.332;6.610;2024-03-02T05:50:32;3.08;;;1.80;;
4704;SDS011;2366;51.332;6.610;2024-03-02T05:52:58;2.17;;;1.97;;
4704;SDS011;2366;51.332;6.610;2024-03-02T05:55:23;7.23;;;2.47;;
4704;SDS011;2366;51.332;6.610;2024-03-02T05:57:49;2.67;;;2.17;;
4704;SDS011;2366;51.332;6.610;2024-03-02T06:00:35;3.53;;;2.60;;
4704;SDS011;2366;51.332;6.610;2024-03-02T06:03:00;4.60;;;2.17;;
4704;SDS011;2366;51.332;6.610;2024-03-02T06:05:25;5.80;;;2.60;;
4704;SDS011;2366;51.332;6.610;2024-03-02T06:07:51;3.07;;;2.17;;
4704;SDS011;2366;51.332;6.610;2024-03-02T06:10:16;3.10;;;2.10;;
4704;SDS011;2366;51.332;6.610;2024-03-02T06:12:42;3.47;;;2.50;;
4704;SDS011;2366;51.332;6.610;2024-03-02T06:15:08;8.37;;;2.43;;
4704;SDS011;2366;51.332;6.610;2024-03-02T06:17:34;3.60;;;2.53;;
4704;SDS011;2366;51.332;6.610;2024-03-02T06:20:01;2.95;;;2.15;;
4704;SDS011;2366;51.332;6.610;2024-03-02T06:22:26;7.07;;;2.27;;
4704;SDS011;2366;51.332;6.610;2024-03-02T06:24:52;2.00;;;1.70;;
4704;SDS011;2366;51.332;6.610;2024-03-02T06:27:17;1.90;;;1.67;;
4704;SDS011;2366;51.332;6.610;2024-03-02T06:29:43;4.23;;;2.37;;
4704;SDS011;2366;51.332;6.610;2024-03-02T06:32:08;4.87;;;3.00;;
4704;SDS011;2366;51.332;6.610;2024-03-02T06:34:33;3.83;;;2.40;;
4704;SDS011;2366;51.332;6.610;2024-03-02T06:36:59;2.03;;;1.70;;
4704;SDS011;2366;51.332;6.610;2024-03-02T06:39:25;5.50;;;2.30;;
4704;SDS011;2366;51.332;6.610;2024-03-02T06:41:51;6.60;;;2.42;;
4704;SDS011;2366;51.332;6.610;2024-03-02T06:44:16;6.38;;;2.30;;
4704;SDS011;2366;51.332;6.610;2024-03-02T06:46:42;2.40;;;2.20;;
4704;SDS011;2366;51.332;6.610;2024-03-02T06:49:07;3.93;;;1.80;;
4704;SDS011;2366;51.332;6.610;2024-03-02T06:51:34;5.15;;;2.72;;
4704;SDS011;2366;51.332;6.610;2024-03-02T06:54:00;2.80;;;2.33;;
4704;SDS011;2366;51.332;6.610;2024-03-02T06:56:25;2.50;;;2.30;;
4704;SDS011;2366;51.332;6.610;2024-03-02T06:58:51;8.03;;;2.00;;
4704;SDS011;2366;51.332;6.610;2024-03-02T07:01:17;2.22;;;2.00;;
4704;SDS011;2366;51.332;6.610;2024-03-02T07:03:42;6.83;;;2.03;;
4704;SDS011;2366;51.332;6.610;2024-03-02T07:06:09;2.15;;;1.80;;
4704;SDS011;2366;51.332;6.610;2024-03-02T07:08:34;5.73;;;2.40;;
4704;SDS011;2366;51.332;6.610;2024-03-02T07:11:00;2.90;;;2.20;;
4704;SDS011;2366;51.332;6.610;2024-03-02T07:13:25;6.50;;;2.30;;
4704;SDS011;2366;51.332;6.610;2024-03-02T07:15:51;2.77;;;2.13;;
4704;SDS011;2366;51.332;6.610;2024-03-02T07:18:28;2.55;;;2.35;;
4704;SDS011;2366;51.332;6.610;2024-03-02T07:20:55;2.72;;;2.53;;
4704;SDS011;2366;51.332;6.610;2024-03-02T07:23:23;2.85;;;2.10;;
4704;SDS011;2366;51.332;6.610;2024-03-02T07:25:52;2.40;;;2.20;;
4704;SDS011;2366;51.332;6.610;2024-03-02T07:28:19;2.15;;;1.95;;
4704;SDS011;2366;51.332;6.610;2024-03-02T07:30:45;4.70;;;2.20;;
4704;SDS011;2366;51.332;6.610;2024-03-02T07:33:11;5.30;;;2.33;;
4704;SDS011;2366;51.332;6.610;2024-03-02T07:35:36;2.80;;;2.50;;
4704;SDS011;2366;51.332;6.610;2024-03-02T07:38:01;2.53;;;2.33;;
4704;SDS011;2366;51.332;6.610;2024-03-02T07:40:27;3.60;;;1.97;;
4704;SDS011;2366;51.332;6.610;2024-03-02T07:42:52;3.70;;;2.10;;
4704;SDS011;2366;51.332;6.610;2024-03-02T07:45:18;4.43;;;2.30;;
4704;SDS011;2366;51.332;6.610;2024-03-02T07:47:43;4.33;;;2.33;;
4704;SDS011;2366;51.332;6.610;2024-03-02T07:50:09;2.78;;;2.53;;
4704;SDS011;2366;51.332;6.610;2024-03-02T07:52:35;2.20;;;2.07;;
4704;SDS011;2366;51.332;6.610;2024-03-02T07:55:00;3.27;;;2.50;;
4704;SDS011;2366;51.332;6.610;2024-03-02T07:57:26;2.37;;;2.10;;
4704;SDS011;2366;51.332;6.610;2024-03-02T07:59:51;2.20;;;1.90;;
4704;SDS011;2366;51.332;6.610;2024-03-02T08:02:17;2.43;;;2.13;;
4704;SDS011;2366;51.332;6.610;2024-03-02T08:04:42;5.83;;;1.97;;
4704;SDS011;2366;51.332;6.610;2024-03-02T08:07:08;2.90;;;1.80;;
4704;SDS011;2366;51.332;6.610;2024-03-02T08:09:34;3.00;;;1.63;;
4704;SDS011;2366;51.332;6.610;2024-03-02T08:11:59;8.30;;;3.57;;
4704;SDS011;2366;51.332;6.610;2024-03-02T08:14:25;3.10;;;2.87;;
4704;SDS011;2366;51.332;6.610;2024-03-02T08:16:51;3.05;;;2.20;;
4704;SDS011;2366;51.332;6.610;2024-03-02T08:19:16;2.73;;;2.00;;
4704;SDS011;2366;51.332;6.610;2024-03-02T08:21:42;4.27;;;1.83;;
4704;SDS011;2366;51.332;6.610;2024-03-02T08:24:08;3.97;;;2.35;;
4704;SDS011;2366;51.332;6.610;2024-03-02T08:26:34;2.23;;;2.00;;
4704;SDS011;2366;51.332;6.610;2024-03-02T08:29:00;2.22;;;1.65;;
4704;SDS011;2366;51.332;6.610;2024-03-02T08:31:27;4.18;;;2.05;;
4704;SDS011;2366;51.332;6.610;2024-03-02T08:33:52;2.20;;;2.00;;
4704;SDS011;2366;51.332;6.610;2024-03-02T08:36:18;4.40;;;2.20;;
4704;SDS011;2366;51.332;6.610;2024-03-02T08:38:44;8.00;;;2.50;;
4704;SDS011;2366;51.332;6.610;2024-03-02T08:41:10;6.10;;;1.53;;
4704;SDS011;2366;51.332;6.610;2024-03-02T08:43:38;1.80;;;1.43;;
4704;SDS011;2366;51.332;6.610;2024-03-02T08:46:03;2.33;;;1.77;;
4704;SDS011;2366;51.332;6.610;2024-03-02T08:48:29;1.33;;;1.03;;
4704;SDS011;2366;51.332;6.610;2024-03-02T08:50:54;1.90;;;1.70;;
4704;SDS011;2366;51.332;6.610;2024-03-02T08:53:20;1.10;;;1.10;;
4704;SDS011;2366;51.332;6.610;2024-03-02T08:55:45;2.10;;;1.57;;
4704;SDS011;2366;51.332;6.610;2024-03-02T08:58:11;2.23;;;1.60;;
4704;SDS011;2366;51.332;6.610;2024-03-02T09:00:37;1.67;;;1.23;;
4704;SDS011;2366;51.332;6.610;2024-03-02T09:03:03;2.50;;;1.33;;
4704;SDS011;2366;51.332;6.610;2024-03-02T09:05:28;1.40;;;1.10;;
4704;SDS011;2366;51.332;6.610;2024-03-02T09:07:54;2.20;;;1.73;;
4704;SDS011;2366;51.332;6.610;2024-03-02T09:10:19;1.73;;;1.33;;
4704;SDS011;2366;51.332;6.610;2024-03-02T09:12:44;1.40;;;1.10;;
4704;SDS011;2366;51.332;6.610;2024-03-02T09:15:10;2.90;;;1.23;;
4704;SDS011;2366;51.332;6.610;2024-03-02T09:17:35;2.53;;;1.53;;
4704;SDS011;2366;51.332;6.610;2024-03-02T09:20:01;1.90;;;1.27;;
4704;SDS011;2366;51.332;6.610;2024-03-02T09:22:26;3.10;;;1.20;;
4704;SDS011;2366;51.332;6.610;2024-03-02T09:24:52;4.50;;;1.97;;
4704;SDS011;2366;51.332;6.610;2024-03-02T09:27:17;1.60;;;1.50;;
4704;SDS011;2366;51.332;6.610;2024-03-02T09:29:42;4.20;;;1.73;;
4704;SDS011;2366;51.332;6.610;2024-03-02T09:32:08;1.17;;;0.93;;
4704;SDS011;2366;51.332;6.610;2024-03-02T09:34:38;1.63;;;0.97;;
4704;SDS011;2366;51.332;6.610;2024-03-02T09:37:04;2.30;;;0.80;;
4704;SDS011;2366;51.332;6.610;2024-03-02T09:39:29;1.53;;;1.00;;
4704;SDS011;2366;51.332;6.610;2024-03-02T09:41:55;1.33;;;1.13;;
4704;SDS011;2366;51.332;6.610;2024-03-02T09:44:20;2.30;;;1.00;;
4704;SDS011;2366;51.332;6.610;2024-03-02T09:46:50;1.33;;;1.23;;
4704;SDS011;2366;51.332;6.610;2024-03-02T09:49:16;3.87;;;1.40;;
4704;SDS011;2366;51.332;6.610;2024-03-02T09:51:44;3.70;;;1.57;;
4704;SDS011;2366;51.332;6.610;2024-03-02T09:54:12;5.50;;;1.40;;
4704;SDS011;2366;51.332;6.610;2024-03-02T09:56:38;1.83;;;1.37;;
4704;SDS011;2366;51.332;6.610;2024-03-02T09:59:04;3.83;;;1.33;;
4704;SDS011;2366;51.332;6.610;2024-03-02T10:01:30;2.30;;;1.70;;
4704;SDS011;2366;51.332;6.610;2024-03-02T10:03:57;5.13;;;1.00;;
4704;SDS011;2366;51.332;6.610;2024-03-02T10:06:25;5.03;;;1.25;;
4704;SDS011;2366;51.332;6.610;2024-03-02T10:08:52;1.50;;;1.05;;
4704;SDS011;2366;51.332;6.610;2024-03-02T10:14:08;2.17;;;1.20;;
4704;SDS011;2366;51.332;6.610;2024-03-02T10:16:38;1.92;;;1.02;;
4704;SDS011;2366;51.332;6.610;2024-03-02T10:19:38;1.60;;;1.15;;
4704;SDS011;2366;51.332;6.610;2024-03-02T10:21:58;2.33;;;1.05;;
4704;SDS011;2366;51.332;6.610;2024-03-02T10:24:24;2.45;;;1.00;;
4704;SDS011;2366;51.332;6.610;2024-03-02T10:26:50;7.15;;;1.83;;
4704;SDS011;2366;51.332;6.610;2024-03-02T10:29:16;1.88;;;1.00;;
4704;SDS011;2366;51.332;6.610;2024-03-02T10:31:45;2.67;;;1.00;;
4704;SDS011;2366;51.332;6.610;2024-03-02T10:34:12;1.27;;;1.15;;
4704;SDS011;2366;51.332;6.610;2024-03-02T10:36:40;2.35;;;0.93;;
4704;SDS011;2366;51.332;6.610;2024-03-02T10:39:07;4.30;;;1.00;;
4704;SDS011;2366;51.332;6.610;2024-03-02T10:41:34;4.07;;;1.20;;
4704;SDS011;2366;51.332;6.610;2024-03-02T10:44:04;4.10;;;0.93;;
4704;SDS011;2366;51.332;6.610;2024-03-02T10:46:31;1.70;;;0.73;;
4704;SDS011;2366;51.332;6.610;2024-03-02T10:48:58;4.95;;;1.10;;
4704;SDS011;2366;51.332;6.610;2024-03-02T10:51:25;2.05;;;0.85;;
4704;SDS011;2366;51.332;6.610;2024-03-02T10:53:52;6.55;;;1.10;;
4704;SDS011;2366;51.332;6.610;2024-03-02T10:56:22;1.23;;;1.13;;
4704;SDS011;2366;51.332;6.610;2024-03-02T11:01:56;1.58;;;1.00;;
4704;SDS011;2366;51.332;6.610;2024-03-02T11:04:24;4.22;;;0.95;;
4704;SDS011;2366;51.332;6.610;2024-03-02T11:06:51;3.00;;;1.00;;
4704;SDS011;2366;51.332;6.610;2024-03-02T11:09:20;2.95;;;1.00;;
4704;SDS011;2366;51.332;6.610;2024-03-02T11:11:49;2.30;;;0.95;;
4704;SDS011;2366;51.332;6.610;2024-03-02T11:14:21;2.50;;;1.10;;
4704;SDS011;2366;51.332;6.610;2024-03-02T11:16:50;0.95;;;0.95;;
4704;SDS011;2366;51.332;6.610;2024-03-02T11:19:16;3.78;;;1.38;;
4704;SDS011;2366;51.332;6.610;2024-03-02T11:21:43;1.15;;;0.82;;
4704;SDS011;2366;51.332;6.610;2024-03-02T11:26:49;5.50;;;1.00;;
4704;SDS011;2366;51.332;6.610;2024-03-02T11:32:04;3.67;;;1.17;;
4704;SDS011;2366;51.332;6.610;2024-03-02T11:34:41;1.40;;;0.85;;
4704;SDS011;2366;51.332;6.610;2024-03-02T11:37:11;2.83;;;1.35;;
4704;SDS011;2366;51.332;6.610;2024-03-02T11:39:41;3.50;;;1.10;;
4704;SDS011;2366;51.332;6.610;2024-03-02T11:42:09;1.88;;;0.90;;
4704;SDS011;2366;51.332;6.610;2024-03-02T11:44:36;3.20;;;1.00;;
4704;SDS011;2366;51.332;6.610;2024-03-02T11:47:05;3.38;;;1.13;;
4704;SDS011;2366;51.332;6.610;2024-03-02T11:49:39;1.73;;;1.30;;
4704;SDS011;2366;51.332;6.610;2024-03-02T11:52:10;1.70;;;1.05;;
4704;SDS011;2366;51.332;6.610;2024-03-02T11:54:37;1.50;;;0.90;;
4704;SDS011;2366;51.332;6.610;2024-03-02T11:57:11;2.25;;;1.13;;
4704;SDS011;2366;51.332;6.610;2024-03-02T11:59:38;3.03;;;1.13;;
4704;SDS011;2366;51.332;6.610;2024-03-02T12:02:04;2.70;;;1.13;;
4704;SDS011;2366;51.332;6.610;2024-03-02T12:04:30;4.13;;;1.30;;
4704;SDS011;2366;51.332;6.610;2024-03-02T12:06:56;1.50;;;1.00;;
4704;SDS011;2366;51.332;6.610;2024-03-02T12:09:25;2.95;;;0.98;;
4704;SDS011;2366;51.332;6.610;2024-03-02T12:14:29;1.00;;;0.77;;
4704;SDS011;2366;51.332;6.610;2024-03-02T12:16:55;1.50;;;1.02;;
4704;SDS011;2366;51.332;6.610;2024-03-02T12:19:21;3.10;;;0.93;;
4704;SDS011;2366;51.332;6.610;2024-03-02T12:21:46;3.43;;;1.10;;
4704;SDS011;2366;51.332;6.610;2024-03-02T12:24:12;1.67;;;0.80;;
4704;SDS011;2366;51.332;6.610;2024-03-02T12:26:37;1.67;;;1.20;;
4704;SDS011;2366;51.332;6.610;2024-03-02T12:29:03;3.80;;;1.17;;
4704;SDS011;2366;51.332;6.610;2024-03-02T12:31:28;2.50;;;0.90;;
4704;SDS011;2366;51.332;6.610;2024-03-02T12:33:54;4.80;;;1.00;;
4704;SDS011;2366;51.332;6.610;2024-03-02T12:36:20;2.50;;;1.53;;
4704;SDS011;2366;51.332;6.610;2024-03-02T12:38:45;1.63;;;1.10;;
4704;SDS011;2366;51.332;6.610;2024-03-02T12:41:14;2.90;;;1.00;;
4704;SDS011;2366;51.332;6.610;2024-03-02T12:43:40;1.20;;;0.85;;
4704;SDS011;2366;51.332;6.610;2024-03-02T12:46:06;4.00;;;1.10;;
4704;SDS011;2366;51.332;6.610;2024-03-02T12:48:31;1.77;;;1.00;;
4704;SDS011;2366;51.332;6.610;2024-03-02T12:50:57;2.10;;;1.23;;
4704;SDS011;2366;51.332;6.610;2024-03-02T12:53:22;2.50;;;0.93;;
4704;SDS011;2366;51.332;6.610;2024-03-02T12:55:49;0.93;;;0.80;;
4704;SDS011;2366;51.332;6.610;2024-03-02T12:58:18;3.43;;;1.13;;
4704;SDS011;2366;51.332;6.610;2024-03-02T13:00:44;2.72;;;0.95;;
4704;SDS011;2366;51.332;6.610;2024-03-02T13:03:11;1.70;;;1.50;;
4704;SDS011;2366;51.332;6.610;2024-03-02T13:05:36;3.00;;;0.90;;
4704;SDS011;2366;51.332;6.610;2024-03-02T13:08:02;2.80;;;0.70;;
4704;SDS011;2366;51.332;6.610;2024-03-02T13:10:29;2.88;;;1.10;;
4704;SDS011;2366;51.332;6.610;2024-03-02T13:12:55;2.73;;;1.20;;
4704;SDS011;2366;51.332;6.610;2024-03-02T13:15:21;1.58;;;1.25;;
4704;SDS011;2366;51.332;6.610;2024-03-02T13:17:47;1.97;;;1.57;;
4704;SDS011;2366;51.332;6.610;2024-03-02T13:20:14;1.95;;;1.85;;
4704;SDS011;2366;51.332;6.610;2024-03-02T13:22:39;0.93;;;0.93;;
4704;SDS011;2366;51.332;6.610;2024-03-02T13:25:05;3.63;;;1.40;;
4704;SDS011;2366;51.332;6.610;2024-03-02T13:27:31;4.07;;;1.50;;
4704;SDS011;2366;51.332;6.610;2024-03-02T13:30:00;2.97;;;0.90;;
4704;SDS011;2366;51.332;6.610;2024-03-02T13:32:26;2.50;;;1.08;;
4704;SDS011;2366;51.332;6.610;2024-03-02T13:34:51;1.20;;;1.07;;
4704;SDS011;2366;51.332;6.610;2024-03-02T13:37:17;2.27;;;1.50;;
4704;SDS011;2366;51.332;6.610;2024-03-02T13:39:42;9.80;;;1.23;;
4704;SDS011;2366;51.332;6.610;2024-03-02T13:42:08;1.10;;;1.00;;
4704;SDS011;2366;51.332;6.610;2024-03-02T13:44:35;2.60;;;1.13;;
4704;SDS011;2366;51.332;6.610;2024-03-02T13:47:00;1.45;;;1.33;;
4704;SDS011;2366;51.332;6.610;2024-03-02T13:49:26;1.50;;;1.03;;
4704;SDS011;2366;51.332;6.610;2024-03-02T13:52:11;2.22;;;1.65;;
4704;SDS011;2366;51.332;6.610;2024-03-02T13:54:38;4.43;;;2.03;;
4704;SDS011;2366;51.332;6.610;2024-03-02T13:57:07;2.20;;;1.20;;
4704;SDS011;2366;51.332;6.610;2024-03-02T13:59:34;1.25;;;1.15;;
4704;SDS011;2366;51.332;6.610;2024-03-02T14:02:00;1.43;;;1.13;;
4704;SDS011;2366;51.332;6.610;2024-03-02T14:04:26;4.50;;;1.45;;
4704;SDS011;2366;51.332;6.610;2024-03-02T14:06:52;1.10;;;1.00;;
4704;SDS011;2366;51.332;6.610;2024-03-02T14:09:18;1.70;;;1.30;;
4704;SDS011;2366;51.332;6.610;2024-03-02T14:11:45;2.85;;;1.67;;
4704;SDS011;2366;51.332;6.610;2024-03-02T14:14:10;1.60;;;1.20;;
4704;SDS011;2366;51.332;6.610;2024-03-02T14:16:36;2.47;;;1.27;;
4704;SDS011;2366;51.332;6.610;2024-03-02T14:19:01;4.80;;;1.97;;
4704;SDS011;2366;51.332;6.610;2024-03-02T14:21:29;1.05;;;1.02;;
4704;SDS011;2366;51.332;6.610;2024-03-02T14:23:54;1.73;;;1.20;;
4704;SDS011;2366;51.332;6.610;2024-03-02T14:26:20;2.40;;;1.57;;
4704;SDS011;2366;51.332;6.610;2024-03-02T14:28:45;1.43;;;1.00;;
4704;SDS011;2366;51.332;6.610;2024-03-02T14:31:11;3.40;;;1.20;;
4704;SDS011;2366;51.332;6.610;2024-03-02T14:33:36;1.97;;;1.57;;
4704;SDS011;2366;51.332;6.610;2024-03-02T14:36:02;1.63;;;1.53;;
4704;SDS011;2366;51.332;6.610;2024-03-02T14:38:29;3.50;;;1.42;;
4704;SDS011;2366;51.332;6.610;2024-03-02T14:40:54;1.40;;;1.30;;
4704;SDS011;2366;51.332;6.610;2024-03-02T14:43:20;1.40;;;1.23;;
4704;SDS011;2366;51.332;6.610;2024-03-02T14:45:45;2.10;;;1.50;;
4704;SDS011;2366;51.332;6.610;2024-03-02T14:48:11;1.67;;;1.37;;
4704;SDS011;2366;51.332;6.610;2024-03-02T14:50:37;2.50;;;1.40;;
4704;SDS011;2366;51.332;6.610;2024-03-02T14:53:02;1.10;;;1.00;;
4704;SDS011;2366;51.332;6.610;2024-03-02T14:55:27;4.27;;;1.73;;
4704;SDS011;2366;51.332;6.610;2024-03-02T14:57:53;2.33;;;1.23;;
4704;SDS011;2366;51.332;6.610;2024-03-02T15:00:19;1.23;;;1.13;;
4704;SDS011;2366;51.332;6.610;2024-03-02T15:02:44;1.60;;;1.50;;
4704;SDS011;2366;51.332;6.610;2024-03-02T15:05:09;1.70;;;1.60;;
4704;SDS011;2366;51.332;6.610;2024-03-02T15:07:35;1.50;;;1.20;;
4704;SDS011;2366;51.332;6.610;2024-03-02T15:10:00;1.30;;;1.20;;
4704;SDS011;2366;51.332;6.610;2024-03-02T15:12:26;2.53;;;1.47;;
4704;SDS011;2366;51.332;6.610;2024-03-02T15:14:51;1.90;;;1.10;;
4704;SDS011;2366;51.332;6.610;2024-03-02T15:17:17;1.90;;;1.23;;
4704;SDS011;2366;51.332;6.610;2024-03-02T15:19:43;1.60;;;1.38;;
4704;SDS011;2366;51.332;6.610;2024-03-02T15:22:09;1.05;;;0.95;;
4704;SDS011;2366;51.332;6.610;2024-03-02T15:24:35;1.33;;;1.07;;
4704;SDS011;2366;51.332;6.610;2024-03-02T15:27:01;1.13;;;0.87;;
4704;SDS011;2366;51.332;6.610;2024-03-02T15:29:30;2.15;;;1.10;;